Enter the Airport ICAO Code

Search by Airport or City

Current Weather

SUMU | Carrasco Gral. Cesáreo L. Berisso International Airport

Montevideo, Uruguay

Last Update 16 Minutes Ago

Mostly Cloudy Sky

Temperature of 21 ºC

Light to Moderate Winds from SouthEast

Temperature

21 ºC

Dew Point Temperature

15 ºC

Relative Humidity

68.72 %

Wind Direction

SouthEast (150º, Without Significant Variations)

Wind Velocity

9 km/h (05 kt)

Gusts

None

Visibility

Greater than 10 Kilometers

Sea Level Pressure

1016 hPa (Hectopascals)

Layers of Clouds

60% to 90% of Sky Covered from 792 mts (2600 ft) Above Ground Level.

METAR SUMU 091000Z 15005KT 9999 BKN026 21/15 Q1016 NOSIG

Weather Forecast

SUMU | Carrasco Gral. Cesáreo L. Berisso International Airport

Montevideo, Uruguay

Forecast valid for the next 20 Hours

From now on it is expected:

Mostly Cloudy Sky

Moderate Winds from South

In 8 hours it is expected the begining of 4 hours with intermittent periods of:

Moderate Winds from SouthEast with Gusts

In 12 to 14 hours it is expected the begining of:

Moderate Winds from East

Maximum Temperature

23 ºC in 8 Hours

Minimum Temperature

16 ºC in -1 Hours

TAF SUMU 090530Z 0906/1006 16010KT 9999 BKN020 TX23/0918Z TN16/0909Z TEMPO 0918/0922 14015G25KT BECMG 0922/1000 08015KT